KC7MRQ Weather Reports


Display with metric or nautical units.
time (UTC)temp
F
wind
direction
speed
MPH
gust
MPH
rain 1hr
in
rain 24hr
in
rain mn
in
humidity
%
barometer
mb
20240621131524 50 50 0.0 2.0 0.00 0.00 0.00 68 1013.2
20240621130011 49 179 6.0 16.0 0.00 0.00 0.00 68 1013.1
20240621124522 47 195 9.0 14.0 0.00 0.00 0.00 71 1013.2
20240621123009 47 208 3.0 7.0 0.00 0.00 0.00 71 1013.3
20240621121509 47 198 4.0 10.0 0.00 0.00 0.00 70 1013.4
20240621120007 46 190 11.0 15.0 0.00 0.00 0.00 69 1013.2
20240621114515 46 192 12.0 15.0 0.00 0.00 0.00 69 1013.1
20240621113005 46 215 8.0 12.0 0.00 0.00 0.00 69 1013.3
20240621111504 46 190 10.0 14.0 0.00 0.00 0.00 69 1013.3
20240621110005 46 199 10.0 15.0 0.00 0.00 0.00 67 1013.3
20240621104557 47 180 9.0 14.0 0.00 0.00 0.00 65 1013.3
20240621103113 47 192 12.0 16.0 0.00 0.00 0.00 65 1013.2
20240621101553 48 194 7.0 11.0 0.00 0.00 0.00 64 1013.4
20240621100052 48 210 6.0 10.0 0.00 0.00 0.00 62 1013.5
20240621094607 49 190 6.0 11.0 0.00 0.00 0.00 61 1013.7
20240621093126 49 179 12.0 16.0 0.00 0.00 0.00 61 1013.9
20240621091547 50 221 8.0 13.0 0.00 0.00 0.00 59 1014.0
20240621090054 49 208 8.0 12.0 0.00 0.00 0.00 60 1014.1
20240621084541 50 198 9.0 15.0 0.00 0.00 0.00 59 1014.1
20240621083042 50 189 8.0 11.0 0.00 0.00 0.00 59 1014.2
20240621081542 50 210 10.0 14.0 0.00 0.00 0.00 59 1014.5
20240621080038 50 189 8.0 14.0 0.00 0.00 0.00 59 1014.4
20240621074541 50 194 13.0 17.0 0.00 0.00 0.00 58 1014.5
20240621073035 51 217 6.0 12.0 0.00 0.00 0.00 56 1014.6
20240621071533 51 198 8.0 15.0 0.00 0.00 0.00 57 1014.5
20240621070037 51 179 13.0 18.0 0.00 0.00 0.00 56 1014.6
20240621064525 53 202 3.0 7.0 0.00 0.00 0.00 52 1015.0
20240621063025 54 199 4.0 12.0 0.00 0.00 0.00 49 1015.0
20240621061521 53 175 12.0 15.0 0.00 0.00 0.00 52 1015.0
20240621060017 53 217 8.0 12.0 0.00 0.00 0.00 51 1015.3
20240621054516 53 194 9.0 16.0 0.00 0.00 0.00 54 1015.2
20240621053016 53 176 13.0 16.0 0.00 0.00 0.00 54 1015.1
20240621051515 54 183 8.0 12.0 0.00 0.00 0.00 50 1015.3
20240621050014 56 212 9.0 14.0 0.00 0.00 0.00 45 1015.3
20240621044513 55 209 7.0 15.0 0.00 0.00 0.00 48 1015.2
20240621043013 56 195 11.0 14.0 0.00 0.00 0.00 47 1015.1
20240621041512 57 206 7.0 10.0 0.00 0.00 0.00 43 1015.1
20240621040013 57 209 9.0 12.0 0.00 0.00 0.00 43 1015.0
20240621034512 56 192 2.0 10.0 0.00 0.00 0.00 43 1014.9
20240621033011 57 213 8.0 10.0 0.00 0.00 0.00 43 1014.8
20240621031523 61 227 7.0 10.0 0.00 0.00 0.00 38 1014.8
20240621030009 61 249 2.0 7.0 0.00 0.00 0.00 38 1014.8
20240621024508 61 242 3.0 7.0 0.00 0.00 0.00 39 1014.8
20240621023020 62 261 4.0 11.0 0.00 0.00 0.00 39 1014.7
20240621021510 64 262 9.0 11.0 0.00 0.00 0.00 36 1014.9
20240621020006 65 279 7.0 10.0 0.00 0.00 0.00 35 1015.0
20240621014508 65 259 5.0 12.0 0.00 0.00 0.00 35 1015.0
20240621013004 66 260 8.0 12.0 0.00 0.00 0.00 35 1014.9
20240621011507 66 262 6.0 14.0 0.00 0.00 0.00 36 1015.1
20240621010004 67 295 7.0 10.0 0.00 0.00 0.00 34 1015.1
20240621004500 67 272 5.0 10.0 0.00 0.00 0.00 33 1015.1
20240621003101 68 278 6.0 8.0 0.00 0.00 0.00 32 1015.1
20240621001607 68 246 0.0 8.0 0.00 0.00 0.00 30 1015.1
20240621000056 69 206 1.0 4.0 0.00 0.00 0.00 30 1015.2
20240620234553 67 242 2.0 10.0 0.00 0.00 0.00 30 1015.3
20240620233051 67 32 1.0 10.0 0.00 0.00 0.00 32 1015.4
20240620231554 67 252 6.0 12.0 0.00 0.00 0.00 33 1015.5
20240620230048 67 279 7.0 12.0 0.00 0.00 0.00 34 1015.7
20240620224549 67 292 7.0 13.0 0.00 0.00 0.00 33 1015.7
20240620223045 67 279 6.0 15.0 0.00 0.00 0.00 34 1015.9
20240620221543 67 261 10.0 18.0 0.00 0.00 0.00 37 1016.1
20240620220040 67 12 8.0 13.0 0.00 0.00 0.00 32 1016.4
20240620214539 67 299 3.0 12.0 0.00 0.00 0.00 33 1016.4
20240620213038 67 322 6.0 15.0 0.00 0.00 0.00 32 1016.5
20240620211537 67 341 6.0 13.0 0.00 0.00 0.00 36 1016.4
20240620210035 67 8 7.0 14.0 0.00 0.00 0.00 35 1016.6
20240620204532 68 356 7.0 15.0 0.00 0.00 0.00 33 1016.7
20240620203030 68 26 8.0 14.0 0.00 0.00 0.00 35 1016.9
20240620201527 67 40 10.0 18.0 0.00 0.00 0.00 33 1017.1
20240620200024 66 25 8.0 13.0 0.00 0.00 0.00 37 1017.3
20240620194521 66 358 7.0 13.0 0.00 0.00 0.00 37 1017.4
20240620193019 64 2 9.0 15.0 0.00 0.00 0.00 41 1017.6
20240620191514 63 25 7.0 13.0 0.00 0.00 0.00 43 1017.9
20240620190012 61 43 8.0 13.0 0.00 0.00 0.00 45 1018.0
20240620184511 62 20 9.0 14.0 0.00 0.00 0.00 42 1018.0
20240620183010 63 14 9.0 12.0 0.00 0.00 0.00 41 1018.0
20240620181511 62 59 5.0 10.0 0.00 0.00 0.00 41 1018.2
20240620180008 62 37 6.0 13.0 0.00 0.00 0.00 41 1018.3
20240620174502 61 31 5.0 11.0 0.00 0.00 0.00 43 1018.5
20240620173000 60 37 5.0 11.0 0.00 0.00 0.00 44 1018.5
20240620171557 59 331 4.0 9.0 0.00 0.00 0.00 46 1018.7
20240620170056 60 44 5.0 9.0 0.00 0.00 0.00 47 1018.9
20240620164554 59 293 3.0 7.0 0.00 0.00 0.00 47 1019.0
20240620163048 57 19 3.0 8.0 0.00 0.00 0.00 48 1019.2
20240620161548 56 17 3.0 6.0 0.00 0.00 0.00 51 1019.3
20240620160044 55 354 2.0 5.0 0.00 0.00 0.00 54 1019.4
20240620154550 54 360 2.0 9.0 0.00 0.00 0.00 56 1019.6
20240620153045 53 87 2.0 6.0 0.00 0.00 0.00 54 1019.7
20240620151533 52 360 2.0 5.0 0.00 0.00 0.00 60 1019.7
20240620150029 51 32 2.0 5.0 0.00 0.00 0.00 63 1019.8
20240620144530 49 52 1.0 4.0 0.00 0.00 0.00 70 1019.9
20240620143022 47 107 1.0 2.0 0.00 0.00 0.00 72 1019.9
20240620141522 46 4 1.0 3.0 0.00 0.00 0.00 72 1019.9
20240620140016 45 22 2.0 4.0 0.00 0.00 0.00 73 1019.9
20240620134523 43 183 3.0 6.0 0.00 0.00 0.00 74 1019.9
20240620133011 42 25 1.0 3.0 0.00 0.00 0.00 77 1020.0